sensor_id;sensor_type;location;lat;lon;timestamp;pressure;altitude;pressure_sealevel;temperature;humidity
41202;BME280;26936;50.524;8.684;2023-03-22T00:00:42;99077.56;;;7.62;100.00
41202;BME280;26936;50.524;8.684;2023-03-22T00:03:08;99083.19;;;7.62;100.00
41202;BME280;26936;50.524;8.684;2023-03-22T00:05:34;99070.56;;;7.70;100.00
41202;BME280;26936;50.524;8.684;2023-03-22T00:07:59;99069.47;;;7.52;100.00
41202;BME280;26936;50.524;8.684;2023-03-22T00:10:26;99071.13;;;7.49;100.00
41202;BME280;26936;50.524;8.684;2023-03-22T00:12:55;99062.56;;;7.40;100.00
41202;BME280;26936;50.524;8.684;2023-03-22T00:15:20;99062.38;;;7.31;100.00
41202;BME280;26936;50.524;8.684;2023-03-22T00:17:47;99059.66;;;7.28;100.00
41202;BME280;26936;50.524;8.684;2023-03-22T00:20:14;99061.78;;;7.24;100.00
41202;BME280;26936;50.524;8.684;2023-03-22T00:22:42;99054.31;;;7.33;100.00
41202;BME280;26936;50.524;8.684;2023-03-22T00:25:07;99051.16;;;7.31;100.00
41202;BME280;26936;50.524;8.684;2023-03-22T00:27:33;99057.03;;;7.37;100.00
41202;BME280;26936;50.524;8.684;2023-03-22T00:29:58;99051.25;;;7.28;100.00
41202;BME280;26936;50.524;8.684;2023-03-22T00:32:23;99046.09;;;7.42;100.00
41202;BME280;26936;50.524;8.684;2023-03-22T00:34:49;99041.09;;;7.50;100.00
41202;BME280;26936;50.524;8.684;2023-03-22T00:37:14;99049.53;;;7.34;100.00
41202;BME280;26936;50.524;8.684;2023-03-22T00:39:43;99039.72;;;7.26;100.00
41202;BME280;26936;50.524;8.684;2023-03-22T00:42:08;99035.69;;;7.27;100.00
41202;BME280;26936;50.524;8.684;2023-03-22T00:44:34;99025.19;;;7.31;100.00
41202;BME280;26936;50.524;8.684;2023-03-22T00:46:59;99018.63;;;7.37;100.00
41202;BME280;26936;50.524;8.684;2023-03-22T00:49:25;99020.72;;;7.33;100.00
41202;BME280;26936;50.524;8.684;2023-03-22T00:51:51;99017.53;;;7.47;100.00
41202;BME280;26936;50.524;8.684;2023-03-22T00:54:16;99013.78;;;7.38;100.00
41202;BME280;26936;50.524;8.684;2023-03-22T00:56:42;99014.56;;;7.38;100.00
41202;BME280;26936;50.524;8.684;2023-03-22T00:59:10;99013.97;;;7.31;100.00
41202;BME280;26936;50.524;8.684;2023-03-22T01:01:36;99020.03;;;7.29;100.00
41202;BME280;26936;50.524;8.684;2023-03-22T01:04:01;99027.88;;;7.34;100.00
41202;BME280;26936;50.524;8.684;2023-03-22T01:06:27;99023.03;;;7.51;100.00
41202;BME280;26936;50.524;8.684;2023-03-22T01:08:52;99023.06;;;7.35;100.00
41202;BME280;26936;50.524;8.684;2023-03-22T01:11:19;99023.88;;;7.35;100.00
41202;BME280;26936;50.524;8.684;2023-03-22T01:13:44;99030.69;;;7.34;100.00
41202;BME280;26936;50.524;8.684;2023-03-22T01:16:11;99023.41;;;7.37;100.00
41202;BME280;26936;50.524;8.684;2023-03-22T01:18:37;99028.16;;;7.24;100.00
41202;BME280;26936;50.524;8.684;2023-03-22T01:21:02;99028.84;;;7.28;100.00
41202;BME280;26936;50.524;8.684;2023-03-22T01:23:28;99018.97;;;7.23;100.00
41202;BME280;26936;50.524;8.684;2023-03-22T01:25:53;99018.09;;;7.26;100.00
41202;BME280;26936;50.524;8.684;2023-03-22T01:28:18;99016.69;;;7.18;100.00
41202;BME280;26936;50.524;8.684;2023-03-22T01:30:44;99016.88;;;7.11;100.00
41202;BME280;26936;50.524;8.684;2023-03-22T01:33:09;99016.63;;;7.06;100.00
41202;BME280;26936;50.524;8.684;2023-03-22T01:35:35;99017.94;;;7.01;100.00
41202;BME280;26936;50.524;8.684;2023-03-22T01:38:01;99015.31;;;6.94;100.00
41202;BME280;26936;50.524;8.684;2023-03-22T01:40:26;99014.25;;;6.88;100.00
41202;BME280;26936;50.524;8.684;2023-03-22T01:42:53;99012.78;;;6.83;100.00
41202;BME280;26936;50.524;8.684;2023-03-22T01:45:39;99004.56;;;6.76;100.00
41202;BME280;26936;50.524;8.684;2023-03-22T01:50:34;99000.88;;;6.63;100.00
41202;BME280;26936;50.524;8.684;2023-03-22T01:53:01;99000.59;;;6.58;100.00
41202;BME280;26936;50.524;8.684;2023-03-22T01:55:30;98993.94;;;6.52;100.00
41202;BME280;26936;50.524;8.684;2023-03-22T01:57:56;98984.94;;;6.44;100.00
41202;BME280;26936;50.524;8.684;2023-03-22T02:00:21;98988.56;;;6.41;100.00
41202;BME280;26936;50.524;8.684;2023-03-22T02:02:48;98990.69;;;6.37;100.00
41202;BME280;26936;50.524;8.684;2023-03-22T02:05:14;98983.59;;;6.33;100.00
41202;BME280;26936;50.524;8.684;2023-03-22T02:07:41;98985.69;;;6.29;100.00
41202;BME280;26936;50.524;8.684;2023-03-22T02:10:15;98985.69;;;6.29;100.00
41202;BME280;26936;50.524;8.684;2023-03-22T02:15:55;98977.09;;;6.20;100.00
41202;BME280;26936;50.524;8.684;2023-03-22T02:18:45;98967.31;;;6.12;100.00
41202;BME280;26936;50.524;8.684;2023-03-22T02:29:46;98961.44;;;5.87;100.00
41202;BME280;26936;50.524;8.684;2023-03-22T02:32:51;98953.63;;;5.78;100.00
41202;BME280;26936;50.524;8.684;2023-03-22T02:41:13;98958.78;;;5.60;100.00
41202;BME280;26936;50.524;8.684;2023-03-22T02:44:04;98963.28;;;5.54;100.00
41202;BME280;26936;50.524;8.684;2023-03-22T02:46:43;98963.72;;;5.52;100.00
41202;BME280;26936;50.524;8.684;2023-03-22T02:49:24;98969.00;;;5.47;100.00
41202;BME280;26936;50.524;8.684;2023-03-22T02:52:00;98971.97;;;5.40;100.00
41202;BME280;26936;50.524;8.684;2023-03-22T02:54:53;98975.69;;;5.33;100.00
41202;BME280;26936;50.524;8.684;2023-03-22T02:59:53;98968.78;;;5.18;100.00
41202;BME280;26936;50.524;8.684;2023-03-22T03:02:20;98965.97;;;5.18;100.00
41202;BME280;26936;50.524;8.684;2023-03-22T03:04:48;98967.75;;;5.09;100.00
41202;BME280;26936;50.524;8.684;2023-03-22T03:07:19;98958.22;;;5.06;100.00
41202;BME280;26936;50.524;8.684;2023-03-22T03:09:46;98956.22;;;5.07;100.00
41202;BME280;26936;50.524;8.684;2023-03-22T03:12:20;98960.69;;;5.01;100.00
41202;BME280;26936;50.524;8.684;2023-03-22T03:14:47;98962.72;;;5.00;100.00
41202;BME280;26936;50.524;8.684;2023-03-22T03:28:03;98941.31;;;4.71;100.00
41202;BME280;26936;50.524;8.684;2023-03-22T03:30:37;98943.78;;;4.65;100.00
41202;BME280;26936;50.524;8.684;2023-03-22T03:33:07;98935.91;;;4.60;100.00
41202;BME280;26936;50.524;8.684;2023-03-22T03:35:48;98932.41;;;4.56;100.00
41202;BME280;26936;50.524;8.684;2023-03-22T03:38:18;98934.34;;;4.59;100.00
41202;BME280;26936;50.524;8.684;2023-03-22T03:41:06;98938.25;;;4.62;100.00
41202;BME280;26936;50.524;8.684;2023-03-22T03:43:33;98926.34;;;4.61;100.00
41202;BME280;26936;50.524;8.684;2023-03-22T03:45:59;98933.91;;;4.61;100.00
41202;BME280;26936;50.524;8.684;2023-03-22T03:48:30;98926.75;;;4.60;100.00
41202;BME280;26936;50.524;8.684;2023-03-22T03:50:58;98928.53;;;4.50;100.00
41202;BME280;26936;50.524;8.684;2023-03-22T03:53:24;98924.09;;;4.53;100.00
41202;BME280;26936;50.524;8.684;2023-03-22T03:55:50;98926.88;;;4.53;100.00
41202;BME280;26936;50.524;8.684;2023-03-22T03:58:15;98927.34;;;4.48;100.00
41202;BME280;26936;50.524;8.684;2023-03-22T04:00:41;98933.13;;;4.37;100.00
41202;BME280;26936;50.524;8.684;2023-03-22T04:03:06;98933.16;;;4.34;100.00
41202;BME280;26936;50.524;8.684;2023-03-22T04:05:32;98933.63;;;4.29;100.00
41202;BME280;26936;50.524;8.684;2023-03-22T04:07:57;98928.91;;;4.26;100.00
41202;BME280;26936;50.524;8.684;2023-03-22T04:10:23;98920.66;;;4.18;100.00
41202;BME280;26936;50.524;8.684;2023-03-22T04:12:48;98921.88;;;4.18;100.00
41202;BME280;26936;50.524;8.684;2023-03-22T04:15:14;98918.66;;;4.19;100.00
41202;BME280;26936;50.524;8.684;2023-03-22T04:17:39;98912.72;;;4.17;100.00
41202;BME280;26936;50.524;8.684;2023-03-22T04:20:06;98909.97;;;4.13;100.00
41202;BME280;26936;50.524;8.684;2023-03-22T04:22:33;98912.84;;;4.06;100.00
41202;BME280;26936;50.524;8.684;2023-03-22T04:25:01;98920.75;;;4.11;100.00
41202;BME280;26936;50.524;8.684;2023-03-22T04:27:27;98915.91;;;4.15;100.00
41202;BME280;26936;50.524;8.684;2023-03-22T04:29:53;98912.34;;;4.15;100.00
41202;BME280;26936;50.524;8.684;2023-03-22T04:32:20;98907.94;;;4.18;100.00
41202;BME280;26936;50.524;8.684;2023-03-22T04:34:51;98912.66;;;4.21;100.00
41202;BME280;26936;50.524;8.684;2023-03-22T04:37:17;98909.81;;;4.24;100.00
41202;BME280;26936;50.524;8.684;2023-03-22T04:39:43;98905.34;;;4.30;100.00
41202;BME280;26936;50.524;8.684;2023-03-22T04:42:09;98899.75;;;4.30;100.00
41202;BME280;26936;50.524;8.684;2023-03-22T04:44:35;98899.38;;;4.28;100.00
41202;BME280;26936;50.524;8.684;2023-03-22T04:47:00;98891.81;;;4.29;100.00
41202;BME280;26936;50.524;8.684;2023-03-22T04:49:26;98898.59;;;4.28;100.00
41202;BME280;26936;50.524;8.684;2023-03-22T04:51:53;98898.59;;;4.28;100.00
41202;BME280;26936;50.524;8.684;2023-03-22T04:54:19;98893.91;;;4.21;100.00
41202;BME280;26936;50.524;8.684;2023-03-22T04:56:45;98896.72;;;4.21;100.00
41202;BME280;26936;50.524;8.684;2023-03-22T04:59:10;98899.34;;;4.32;100.00
41202;BME280;26936;50.524;8.684;2023-03-22T05:01:35;98896.19;;;4.53;100.00
41202;BME280;26936;50.524;8.684;2023-03-22T05:04:02;98896.38;;;4.65;100.00
41202;BME280;26936;50.524;8.684;2023-03-22T05:06:28;98892.06;;;4.61;100.00
41202;BME280;26936;50.524;8.684;2023-03-22T05:08:57;98895.44;;;4.49;100.00
41202;BME280;26936;50.524;8.684;2023-03-22T05:11:22;98894.31;;;4.46;100.00
41202;BME280;26936;50.524;8.684;2023-03-22T05:13:51;98904.00;;;4.38;100.00
41202;BME280;26936;50.524;8.684;2023-03-22T05:16:17;98908.06;;;4.34;100.00
41202;BME280;26936;50.524;8.684;2023-03-22T05:18:42;98906.53;;;4.29;100.00
41202;BME280;26936;50.524;8.684;2023-03-22T05:21:14;98907.50;;;4.19;100.00
41202;BME280;26936;50.524;8.684;2023-03-22T05:23:41;98913.13;;;4.15;100.00
41202;BME280;26936;50.524;8.684;2023-03-22T05:26:07;98914.75;;;4.13;100.00
41202;BME280;26936;50.524;8.684;2023-03-22T05:28:34;98910.50;;;4.05;100.00
41202;BME280;26936;50.524;8.684;2023-03-22T05:31:00;98908.97;;;4.00;100.00
41202;BME280;26936;50.524;8.684;2023-03-22T05:33:25;98914.63;;;3.93;100.00
41202;BME280;26936;50.524;8.684;2023-03-22T05:35:52;98916.28;;;3.91;100.00
41202;BME280;26936;50.524;8.684;2023-03-22T05:38:17;98913.91;;;3.89;100.00
41202;BME280;26936;50.524;8.684;2023-03-22T05:40:43;98917.13;;;3.88;100.00
41202;BME280;26936;50.524;8.684;2023-03-22T05:43:09;98913.91;;;3.89;100.00
41202;BME280;26936;50.524;8.684;2023-03-22T05:45:35;98915.19;;;3.85;100.00
41202;BME280;26936;50.524;8.684;2023-03-22T05:48:01;98913.16;;;3.85;100.00
41202;BME280;26936;50.524;8.684;2023-03-22T05:50:26;98913.28;;;3.78;100.00
41202;BME280;26936;50.524;8.684;2023-03-22T05:52:52;98917.09;;;3.91;100.00
41202;BME280;26936;50.524;8.684;2023-03-22T05:55:17;98920.25;;;3.90;100.00
41202;BME280;26936;50.524;8.684;2023-03-22T05:57:43;98921.69;;;4.01;100.00
41202;BME280;26936;50.524;8.684;2023-03-22T06:00:12;98926.75;;;4.10;100.00
41202;BME280;26936;50.524;8.684;2023-03-22T06:02:43;98919.00;;;4.21;100.00
41202;BME280;26936;50.524;8.684;2023-03-22T06:05:10;98909.75;;;4.28;100.00
41202;BME280;26936;50.524;8.684;2023-03-22T06:07:36;98905.22;;;4.37;100.00
41202;BME280;26936;50.524;8.684;2023-03-22T06:10:02;98891.16;;;4.44;100.00
41202;BME280;26936;50.524;8.684;2023-03-22T06:12:28;98898.13;;;4.56;100.00
41202;BME280;26936;50.524;8.684;2023-03-22T06:14:54;98899.34;;;4.55;100.00
41202;BME280;26936;50.524;8.684;2023-03-22T06:17:19;98911.91;;;4.66;100.00
41202;BME280;26936;50.524;8.684;2023-03-22T06:19:45;98907.16;;;4.86;100.00
41202;BME280;26936;50.524;8.684;2023-03-22T06:22:10;98913.69;;;4.99;100.00
41202;BME280;26936;50.524;8.684;2023-03-22T06:24:36;98908.13;;;5.19;100.00
41202;BME280;26936;50.524;8.684;2023-03-22T06:27:01;98929.22;;;5.43;100.00
41202;BME280;26936;50.524;8.684;2023-03-22T06:29:26;98920.41;;;5.64;100.00
41202;BME280;26936;50.524;8.684;2023-03-22T06:31:52;98922.06;;;5.97;100.00
41202;BME280;26936;50.524;8.684;2023-03-22T06:34:17;98933.16;;;6.36;100.00
41202;BME280;26936;50.524;8.684;2023-03-22T06:36:42;98927.75;;;6.77;100.00
41202;BME280;26936;50.524;8.684;2023-03-22T06:39:08;98926.63;;;7.20;100.00
41202;BME280;26936;50.524;8.684;2023-03-22T06:41:33;98933.53;;;7.60;100.00
41202;BME280;26936;50.524;8.684;2023-03-22T06:43:59;98935.53;;;8.13;100.00
41202;BME280;26936;50.524;8.684;2023-03-22T06:46:24;98939.97;;;8.64;98.74
41202;BME280;26936;50.524;8.684;2023-03-22T06:48:50;98922.66;;;9.12;96.31
41202;BME280;26936;50.524;8.684;2023-03-22T06:51:15;98922.91;;;9.83;93.40
41202;BME280;26936;50.524;8.684;2023-03-22T06:53:41;98920.13;;;10.35;91.36
41202;BME280;26936;50.524;8.684;2023-03-22T06:56:06;98914.56;;;11.11;88.72
41202;BME280;26936;50.524;8.684;2023-03-22T06:58:31;98911.91;;;11.52;86.56
41202;BME280;26936;50.524;8.684;2023-03-22T07:00:57;98910.88;;;12.27;84.76
41202;BME280;26936;50.524;8.684;2023-03-22T07:03:22;98911.44;;;12.73;80.55
41202;BME280;26936;50.524;8.684;2023-03-22T07:05:48;98915.56;;;13.43;78.88
41202;BME280;26936;50.524;8.684;2023-03-22T07:08:13;98907.56;;;13.80;76.51
41202;BME280;26936;50.524;8.684;2023-03-22T07:10:38;98909.63;;;14.37;74.45
41202;BME280;26936;50.524;8.684;2023-03-22T07:13:04;98915.97;;;14.61;72.81
41202;BME280;26936;50.524;8.684;2023-03-22T07:15:29;98916.25;;;14.63;70.27
41202;BME280;26936;50.524;8.684;2023-03-22T07:17:55;98916.69;;;15.11;69.42
41202;BME280;26936;50.524;8.684;2023-03-22T07:20:20;98901.22;;;15.47;68.46
41202;BME280;26936;50.524;8.684;2023-03-22T07:22:46;98900.69;;;15.08;70.35
41202;BME280;26936;50.524;8.684;2023-03-22T07:25:11;98894.81;;;15.32;69.03
41202;BME280;26936;50.524;8.684;2023-03-22T07:27:37;98894.16;;;15.82;68.85
41202;BME280;26936;50.524;8.684;2023-03-22T07:30:03;98893.59;;;16.35;68.29
41202;BME280;26936;50.524;8.684;2023-03-22T07:32:29;98901.59;;;16.31;69.81
41202;BME280;26936;50.524;8.684;2023-03-22T07:34:55;98904.25;;;16.66;69.15
41202;BME280;26936;50.524;8.684;2023-03-22T07:37:20;98903.69;;;16.62;68.74
41202;BME280;26936;50.524;8.684;2023-03-22T07:39:46;98901.63;;;16.37;68.56
41202;BME280;26936;50.524;8.684;2023-03-22T07:42:11;98905.38;;;16.48;68.62
41202;BME280;26936;50.524;8.684;2023-03-22T07:44:36;98893.19;;;16.73;68.58
41202;BME280;26936;50.524;8.684;2023-03-22T07:47:02;98887.81;;;17.28;67.44
41202;BME280;26936;50.524;8.684;2023-03-22T07:49:27;98882.75;;;17.49;67.48
41202;BME280;26936;50.524;8.684;2023-03-22T07:51:52;98875.91;;;17.30;67.62
41202;BME280;26936;50.524;8.684;2023-03-22T07:54:18;98877.31;;;16.98;70.63
41202;BME280;26936;50.524;8.684;2023-03-22T07:56:43;98886.06;;;16.58;73.24
41202;BME280;26936;50.524;8.684;2023-03-22T07:59:12;98884.84;;;16.39;73.45
41202;BME280;26936;50.524;8.684;2023-03-22T08:01:37;98879.97;;;16.70;72.24
41202;BME280;26936;50.524;8.684;2023-03-22T08:04:02;98876.28;;;16.59;72.78
41202;BME280;26936;50.524;8.684;2023-03-22T08:06:27;98874.44;;;15.73;76.15
41202;BME280;26936;50.524;8.684;2023-03-22T08:08:53;98873.13;;;15.09;80.26
41202;BME280;26936;50.524;8.684;2023-03-22T08:11:19;98870.59;;;14.96;81.66
41202;BME280;26936;50.524;8.684;2023-03-22T08:13:44;98882.81;;;15.02;83.20
41202;BME280;26936;50.524;8.684;2023-03-22T08:16:10;98876.78;;;14.94;79.63
41202;BME280;26936;50.524;8.684;2023-03-22T08:18:35;98872.63;;;15.10;76.78
41202;BME280;26936;50.524;8.684;2023-03-22T08:21:00;98876.78;;;15.15;72.83
41202;BME280;26936;50.524;8.684;2023-03-22T08:23:26;98862.19;;;15.02;70.55
41202;BME280;26936;50.524;8.684;2023-03-22T08:25:52;98871.41;;;14.62;74.00
41202;BME280;26936;50.524;8.684;2023-03-22T08:28:18;98866.56;;;14.48;76.27
41202;BME280;26936;50.524;8.684;2023-03-22T08:30:45;98864.31;;;14.23;76.24
41202;BME280;26936;50.524;8.684;2023-03-22T08:33:11;98867.94;;;13.94;77.91
41202;BME280;26936;50.524;8.684;2023-03-22T08:35:36;98868.44;;;13.78;79.24
41202;BME280;26936;50.524;8.684;2023-03-22T08:38:02;98873.97;;;13.58;79.51
41202;BME280;26936;50.524;8.684;2023-03-22T08:40:27;98879.47;;;13.38;79.78
41202;BME280;26936;50.524;8.684;2023-03-22T08:42:52;98880.66;;;13.08;82.50
41202;BME280;26936;50.524;8.684;2023-03-22T08:45:18;98888.56;;;12.95;82.37
41202;BME280;26936;50.524;8.684;2023-03-22T08:47:44;98881.94;;;12.74;85.38
41202;BME280;26936;50.524;8.684;2023-03-22T08:50:10;98872.50;;;12.77;85.13
41202;BME280;26936;50.524;8.684;2023-03-22T08:52:36;98869.63;;;12.63;81.91
41202;BME280;26936;50.524;8.684;2023-03-22T08:55:02;98872.31;;;12.57;82.19
41202;BME280;26936;50.524;8.684;2023-03-22T08:57:27;98876.03;;;12.63;81.71
41202;BME280;26936;50.524;8.684;2023-03-22T08:59:53;98859.44;;;12.56;80.78
41202;BME280;26936;50.524;8.684;2023-03-22T09:02:20;98871.31;;;12.69;82.01
41202;BME280;26936;50.524;8.684;2023-03-22T09:04:46;98865.91;;;12.80;81.54
41202;BME280;26936;50.524;8.684;2023-03-22T09:07:11;98863.56;;;12.79;81.31
41202;BME280;26936;50.524;8.684;2023-03-22T09:09:36;98855.50;;;12.86;81.15
41202;BME280;26936;50.524;8.684;2023-03-22T09:12:02;98852.56;;;13.04;79.60
41202;BME280;26936;50.524;8.684;2023-03-22T09:14:27;98852.97;;;13.12;78.96
41202;BME280;26936;50.524;8.684;2023-03-22T09:16:52;98848.91;;;13.13;80.91
41202;BME280;26936;50.524;8.684;2023-03-22T09:19:18;98850.63;;;13.34;80.92
41202;BME280;26936;50.524;8.684;2023-03-22T09:21:43;98840.75;;;13.29;77.77
41202;BME280;26936;50.524;8.684;2023-03-22T09:24:08;98835.66;;;13.19;77.13
41202;BME280;26936;50.524;8.684;2023-03-22T09:26:34;98847.41;;;13.03;77.84
41202;BME280;26936;50.524;8.684;2023-03-22T09:28:59;98837.94;;;13.06;78.07
41202;BME280;26936;50.524;8.684;2023-03-22T09:31:25;98833.47;;;13.37;76.83
41202;BME280;26936;50.524;8.684;2023-03-22T09:33:50;98831.44;;;13.82;72.10
41202;BME280;26936;50.524;8.684;2023-03-22T09:36:15;98836.78;;;14.09;73.41
41202;BME280;26936;50.524;8.684;2023-03-22T09:38:41;98831.50;;;14.16;72.18
41202;BME280;26936;50.524;8.684;2023-03-22T09:41:12;98831.72;;;14.13;73.54
41202;BME280;26936;50.524;8.684;2023-03-22T09:43:54;98828.13;;;14.61;70.93
41202;BME280;26936;50.524;8.684;2023-03-22T09:46:48;98835.94;;;14.86;68.85
41202;BME280;26936;50.524;8.684;2023-03-22T09:49:19;98827.59;;;14.98;68.25
41202;BME280;26936;50.524;8.684;2023-03-22T09:51:48;98830.38;;;14.57;69.04
41202;BME280;26936;50.524;8.684;2023-03-22T09:54:16;98829.22;;;14.49;70.02
41202;BME280;26936;50.524;8.684;2023-03-22T09:56:49;98831.41;;;14.40;70.72
41202;BME280;26936;50.524;8.684;2023-03-22T09:59:27;98833.69;;;14.56;70.23
41202;BME280;26936;50.524;8.684;2023-03-22T10:01:59;98814.59;;;14.36;70.45
41202;BME280;26936;50.524;8.684;2023-03-22T10:07:20;98813.34;;;14.92;69.10
41202;BME280;26936;50.524;8.684;2023-03-22T10:10:08;98811.97;;;15.28;68.86
41202;BME280;26936;50.524;8.684;2023-03-22T10:12:51;98819.06;;;15.18;67.63
41202;BME280;26936;50.524;8.684;2023-03-22T10:17:57;98816.34;;;15.49;67.63
41202;BME280;26936;50.524;8.684;2023-03-22T10:22:56;98823.84;;;14.51;69.49
41202;BME280;26936;50.524;8.684;2023-03-22T10:25:32;98825.00;;;13.96;70.26
41202;BME280;26936;50.524;8.684;2023-03-22T10:27:57;98827.16;;;13.86;71.51
41202;BME280;26936;50.524;8.684;2023-03-22T10:30:29;98817.19;;;13.91;72.07
41202;BME280;26936;50.524;8.684;2023-03-22T10:33:02;98816.59;;;14.01;74.03
41202;BME280;26936;50.524;8.684;2023-03-22T10:35:28;98821.81;;;14.52;72.55
41202;BME280;26936;50.524;8.684;2023-03-22T10:37:57;98810.00;;;15.14;68.88
41202;BME280;26936;50.524;8.684;2023-03-22T10:40:26;98822.81;;;15.29;69.02
41202;BME280;26936;50.524;8.684;2023-03-22T10:43:02;98818.47;;;15.34;68.24
41202;BME280;26936;50.524;8.684;2023-03-22T10:45:30;98815.09;;;15.30;68.47
41202;BME280;26936;50.524;8.684;2023-03-22T10:48:01;98824.31;;;15.25;70.31
41202;BME280;26936;50.524;8.684;2023-03-22T10:50:31;98819.97;;;15.09;70.90
41202;BME280;26936;50.524;8.684;2023-03-22T10:55:28;98828.06;;;14.96;67.76
41202;BME280;26936;50.524;8.684;2023-03-22T10:57:58;98816.66;;;14.70;69.52
41202;BME280;26936;50.524;8.684;2023-03-22T11:00:25;98811.94;;;14.47;70.99
41202;BME280;26936;50.524;8.684;2023-03-22T11:02:58;98829.38;;;14.60;70.01
41202;BME280;26936;50.524;8.684;2023-03-22T11:05:25;98820.03;;;14.54;70.63
41202;BME280;26936;50.524;8.684;2023-03-22T11:07:52;98809.09;;;15.02;69.06
41202;BME280;26936;50.524;8.684;2023-03-22T11:10:21;98816.19;;;15.12;68.96
41202;BME280;26936;50.524;8.684;2023-03-22T11:12:50;98797.69;;;15.62;66.68
41202;BME280;26936;50.524;8.684;2023-03-22T11:15:30;98796.88;;;15.87;64.52
41202;BME280;26936;50.524;8.684;2023-03-22T11:17:59;98790.16;;;16.16;65.12
41202;BME280;26936;50.524;8.684;2023-03-22T11:20:25;98793.63;;;16.37;64.45
41202;BME280;26936;50.524;8.684;2023-03-22T11:22:51;98800.94;;;16.80;63.55
41202;BME280;26936;50.524;8.684;2023-03-22T11:25:25;98790.94;;;17.01;62.10
41202;BME280;26936;50.524;8.684;2023-03-22T11:28:12;98786.59;;;17.11;61.73
41202;BME280;26936;50.524;8.684;2023-03-22T11:30:39;98782.47;;;17.23;59.89
41202;BME280;26936;50.524;8.684;2023-03-22T11:35:35;98783.63;;;16.89;61.67
41202;BME280;26936;50.524;8.684;2023-03-22T11:38:01;98790.16;;;17.00;59.96
41202;BME280;26936;50.524;8.684;2023-03-22T11:40:34;98777.56;;;17.23;59.75
41202;BME280;26936;50.524;8.684;2023-03-22T11:45:37;98767.03;;;16.76;60.13
41202;BME280;26936;50.524;8.684;2023-03-22T11:48:11;98770.31;;;16.27;61.17
41202;BME280;26936;50.524;8.684;2023-03-22T11:50:38;98756.84;;;16.22;61.82
41202;BME280;26936;50.524;8.684;2023-03-22T11:53:06;98756.84;;;16.16;61.70
41202;BME280;26936;50.524;8.684;2023-03-22T11:55:36;98771.88;;;16.59;60.42
41202;BME280;26936;50.524;8.684;2023-03-22T11:58:03;98761.81;;;16.64;61.02
41202;BME280;26936;50.524;8.684;2023-03-22T12:00:29;98766.84;;;16.91;58.26
41202;BME280;26936;50.524;8.684;2023-03-22T12:03:01;98757.84;;;16.98;59.38
41202;BME280;26936;50.524;8.684;2023-03-22T12:05:31;98743.38;;;17.01;60.21
41202;BME280;26936;50.524;8.684;2023-03-22T12:08:08;98749.22;;;17.45;60.33
41202;BME280;26936;50.524;8.684;2023-03-22T12:10:40;98746.56;;;17.42;60.93
41202;BME280;26936;50.524;8.684;2023-03-22T12:13:14;98751.22;;;17.34;57.80
41202;BME280;26936;50.524;8.684;2023-03-22T12:15:47;98759.47;;;17.26;58.72
41202;BME280;26936;50.524;8.684;2023-03-22T12:18:18;98748.25;;;16.95;59.01
41202;BME280;26936;50.524;8.684;2023-03-22T12:23:20;98744.88;;;16.97;59.75
41202;BME280;26936;50.524;8.684;2023-03-22T12:25:57;98740.75;;;16.98;58.41
41202;BME280;26936;50.524;8.684;2023-03-22T12:28:31;98744.66;;;17.06;60.19
41202;BME280;26936;50.524;8.684;2023-03-22T12:30:58;98728.13;;;17.15;58.55
41202;BME280;26936;50.524;8.684;2023-03-22T12:33:28;98734.91;;;17.29;59.96
41202;BME280;26936;50.524;8.684;2023-03-22T12:35:57;98730.72;;;17.13;57.22
41202;BME280;26936;50.524;8.684;2023-03-22T12:41:03;98729.47;;;17.36;57.95
41202;BME280;26936;50.524;8.684;2023-03-22T12:43:38;98720.66;;;17.23;56.74
41202;BME280;26936;50.524;8.684;2023-03-22T12:49:00;98718.41;;;17.49;57.13
41202;BME280;26936;50.524;8.684;2023-03-22T12:51:27;98704.44;;;17.68;59.97
41202;BME280;26936;50.524;8.684;2023-03-22T12:53:55;98702.63;;;17.59;55.33
41202;BME280;26936;50.524;8.684;2023-03-22T12:56:29;98705.22;;;17.57;55.21
41202;BME280;26936;50.524;8.684;2023-03-22T12:59:03;98710.91;;;17.63;55.27
41202;BME280;26936;50.524;8.684;2023-03-22T13:01:38;98702.63;;;17.54;55.43
41202;BME280;26936;50.524;8.684;2023-03-22T13:07:29;98706.50;;;17.68;53.30
41202;BME280;26936;50.524;8.684;2023-03-22T13:09:57;98706.25;;;17.54;53.86
41202;BME280;26936;50.524;8.684;2023-03-22T13:27:56;98686.31;;;17.49;52.76
41202;BME280;26936;50.524;8.684;2023-03-22T13:32:58;98672.09;;;17.54;55.03
41202;BME280;26936;50.524;8.684;2023-03-22T13:35:50;98669.47;;;17.40;54.16
41202;BME280;26936;50.524;8.684;2023-03-22T13:38:23;98668.22;;;17.52;53.45
41202;BME280;26936;50.524;8.684;2023-03-22T13:40:55;98677.00;;;17.59;53.91
41202;BME280;26936;50.524;8.684;2023-03-22T13:43:30;98660.94;;;17.62;54.38
41202;BME280;26936;50.524;8.684;2023-03-22T13:56:52;98659.34;;;17.28;54.33
41202;BME280;26936;50.524;8.684;2023-03-22T14:02:14;98649.75;;;17.20;54.74
41202;BME280;26936;50.524;8.684;2023-03-22T14:05:00;98660.63;;;17.10;55.14
41202;BME280;26936;50.524;8.684;2023-03-22T14:07:49;98650.00;;;17.05;55.68
41202;BME280;26936;50.524;8.684;2023-03-22T14:10:20;98652.34;;;17.12;54.94
41202;BME280;26936;50.524;8.684;2023-03-22T14:15:16;98666.56;;;17.07;51.76
41202;BME280;26936;50.524;8.684;2023-03-22T14:17:46;98652.81;;;16.89;49.17
41202;BME280;26936;50.524;8.684;2023-03-22T14:20:17;98652.28;;;16.85;48.34
41202;BME280;26936;50.524;8.684;2023-03-22T14:22:57;98654.09;;;16.88;50.36
41202;BME280;26936;50.524;8.684;2023-03-22T14:25:27;98659.56;;;16.91;51.53
41202;BME280;26936;50.524;8.684;2023-03-22T14:27:53;98655.66;;;16.83;50.76
41202;BME280;26936;50.524;8.684;2023-03-22T14:32:53;98652.78;;;16.78;51.75
41202;BME280;26936;50.524;8.684;2023-03-22T14:35:40;98645.00;;;16.73;52.59
41202;BME280;26936;50.524;8.684;2023-03-22T14:38:17;98634.41;;;16.73;51.68
41202;BME280;26936;50.524;8.684;2023-03-22T14:40:43;98640.63;;;16.77;53.73
41202;BME280;26936;50.524;8.684;2023-03-22T14:45:48;98652.19;;;16.57;53.39